SFJ21 RJTT-RJBB
Flight info
| Callsign | SFJ21 |
|---|---|
| Flight time | N/A |
| Altitude | 30000 |
| Route | LAXAS Y56 TOHME Y54 KOHWA Y544 DUBKA |
| Aircraft | A320/M-SDE2E3FGHIRWXY/LB1 |
Departure
| Time | 2026-02-17 13:43 |
|---|---|
| Airport | Tokyo Haneda International Airport (RJTT) |
Arrival
| Time | N/A |
|---|---|
| Airport | Kansai International Airport (RJBB) |
| Time | Latitude | Longitude | Altitude | Speed | Heading |
|---|---|---|---|---|---|
| 2026-02-17 13:16 | 35.54544 | 139.78706 | 44 ft | 0 kts | 330° |
| 2026-02-17 13:24 | 35.54536 | 139.78713 | 44 ft | 2 kts | 330° |
| 2026-02-17 13:25 | 35.54523 | 139.78722 | 44 ft | 2 kts | 330° |
| 2026-02-17 13:25 | 35.54510 | 139.78731 | 44 ft | 2 kts | 330° |
| 2026-02-17 13:25 | 35.54496 | 139.78738 | 44 ft | 2 kts | 354° |
| 2026-02-17 13:25 | 35.54481 | 139.78737 | 44 ft | 2 kts | 18° |
| 2026-02-17 13:26 | 35.54468 | 139.78728 | 44 ft | 2 kts | 44° |
| 2026-02-17 13:26 | 35.54459 | 139.78714 | 44 ft | 2 kts | 69° |
| 2026-02-17 13:26 | 35.54458 | 139.78705 | 44 ft | 1 kts | 81° |
| 2026-02-17 13:27 | 35.54457 | 139.78700 | 44 ft | 0 kts | 77° |
| 2026-02-17 13:29 | 35.54457 | 139.78702 | 44 ft | 0 kts | 77° |
| 2026-02-17 13:30 | 35.54459 | 139.78717 | 44 ft | 3 kts | 82° |
| 2026-02-17 13:30 | 35.54459 | 139.78766 | 44 ft | 7 kts | 90° |
| 2026-02-17 13:30 | 35.54458 | 139.78816 | 44 ft | 3 kts | 108° |
| 2026-02-17 13:31 | 35.54402 | 139.78871 | 44 ft | 6 kts | 154° |
| 2026-02-17 13:31 | 35.54383 | 139.78886 | 44 ft | 0 kts | 141° |
| 2026-02-17 13:31 | 35.54382 | 139.78886 | 44 ft | 0 kts | 141° |
| 2026-02-17 13:32 | 35.54382 | 139.78888 | 44 ft | 0 kts | 140° |
| 2026-02-17 13:32 | 35.54379 | 139.78891 | 44 ft | 3 kts | 131° |
| 2026-02-17 13:33 | 35.54422 | 139.79051 | 44 ft | 35 kts | 60° |
| 2026-02-17 13:33 | 35.54543 | 139.79301 | 44 ft | 27 kts | 60° |
| 2026-02-17 13:33 | 35.54534 | 139.79437 | 44 ft | 17 kts | 147° |
| 2026-02-17 13:33 | 35.54389 | 139.79541 | 44 ft | 30 kts | 150° |
| 2026-02-17 13:34 | 35.54210 | 139.79669 | 44 ft | 29 kts | 149° |
| 2026-02-17 13:34 | 35.54037 | 139.79791 | 44 ft | 27 kts | 152° |
| 2026-02-17 13:34 | 35.53913 | 139.79880 | 44 ft | 15 kts | 149° |
| 2026-02-17 13:35 | 35.53843 | 139.79929 | 44 ft | 0 kts | 149° |
| 2026-02-17 13:36 | 35.53839 | 139.79932 | 44 ft | 4 kts | 149° |
| 2026-02-17 13:36 | 35.53782 | 139.79973 | 44 ft | 11 kts | 150° |
| 2026-02-17 13:36 | 35.53641 | 139.80070 | 44 ft | 28 kts | 149° |
| 2026-02-17 13:36 | 35.53477 | 139.80191 | 44 ft | 26 kts | 151° |
| 2026-02-17 13:37 | 35.53337 | 139.80289 | 44 ft | 20 kts | 151° |
| 2026-02-17 13:37 | 35.53220 | 139.80374 | 44 ft | 19 kts | 149° |
| 2026-02-17 13:37 | 35.53105 | 139.80453 | 44 ft | 14 kts | 147° |
| 2026-02-17 13:37 | 35.53043 | 139.80496 | 44 ft | 6 kts | 152° |
| 2026-02-17 13:38 | 35.52970 | 139.80525 | 44 ft | 18 kts | 205° |
| 2026-02-17 13:38 | 35.52869 | 139.80426 | 44 ft | 24 kts | 223° |
| 2026-02-17 13:38 | 35.52784 | 139.80333 | 44 ft | 6 kts | 223° |
| 2026-02-17 13:39 | 35.52689 | 139.80226 | 44 ft | 10 kts | 216° |
| 2026-02-17 13:39 | 35.52631 | 139.80232 | 44 ft | 1 kts | 150° |
| 2026-02-17 13:39 | 35.52619 | 139.80241 | 44 ft | 0 kts | 147° |
| 2026-02-17 13:39 | 35.52618 | 139.80243 | 44 ft | 1 kts | 133° |
| 2026-02-17 13:40 | 35.52599 | 139.80267 | 44 ft | 4 kts | 131° |
| 2026-02-17 13:40 | 35.52578 | 139.80298 | 44 ft | 5 kts | 131° |
| 2026-02-17 13:40 | 35.52551 | 139.80337 | 44 ft | 6 kts | 131° |
| 2026-02-17 13:40 | 35.52516 | 139.80383 | 44 ft | 8 kts | 133° |
| 2026-02-17 13:41 | 35.52487 | 139.80432 | 44 ft | 5 kts | 87° |
| 2026-02-17 13:41 | 35.52494 | 139.80446 | 44 ft | 0 kts | 40° |
| 2026-02-17 13:43 | 35.52956 | 139.80966 | 44 ft | 107 kts | 43° |
| 2026-02-17 13:43 | 35.53645 | 139.81737 | 73 ft | 156 kts | 43° |
| 2026-02-17 13:43 | 35.54428 | 139.82632 | 708 ft | 153 kts | 43° |
| 2026-02-17 13:43 | 35.55206 | 139.83510 | 1362 ft | 155 kts | 43° |
| 2026-02-17 13:44 | 35.55992 | 139.84427 | 1986 ft | 160 kts | 52° |
| 2026-02-17 13:44 | 35.56352 | 139.85750 | 2398 ft | 177 kts | 95° |
| 2026-02-17 13:44 | 35.56014 | 139.87276 | 2799 ft | 198 kts | 107° |
| 2026-02-17 13:44 | 35.55410 | 139.88860 | 3278 ft | 217 kts | 130° |
| 2026-02-17 13:45 | 35.54127 | 139.89920 | 3774 ft | 235 kts | 163° |
| 2026-02-17 13:45 | 35.52438 | 139.89993 | 4297 ft | 254 kts | 194° |
| 2026-02-17 13:45 | 35.50829 | 139.89099 | 5118 ft | 259 kts | 210° |
| 2026-02-17 13:45 | 35.49308 | 139.87955 | 6094 ft | 257 kts | 212° |
| 2026-02-17 13:46 | 35.47825 | 139.86807 | 7044 ft | 256 kts | 212° |
| 2026-02-17 13:46 | 35.46424 | 139.85481 | 7940 ft | 256 kts | 226° |
| 2026-02-17 13:46 | 35.45270 | 139.83846 | 8829 ft | 256 kts | 231° |
| 2026-02-17 13:47 | 35.43012 | 139.80463 | 10382 ft | 262 kts | 231° |
| 2026-02-17 13:47 | 35.41817 | 139.78714 | 10822 ft | 277 kts | 231° |
| 2026-02-17 13:47 | 35.40544 | 139.76872 | 11153 ft | 294 kts | 231° |
| 2026-02-17 13:47 | 35.39176 | 139.74911 | 11462 ft | 311 kts | 231° |
| 2026-02-17 13:48 | 35.37734 | 139.72856 | 11832 ft | 324 kts | 231° |
| 2026-02-17 13:48 | 35.36241 | 139.70746 | 12501 ft | 327 kts | 232° |
| 2026-02-17 13:48 | 35.34771 | 139.68671 | 13216 ft | 327 kts | 232° |
| 2026-02-17 13:48 | 35.33269 | 139.66556 | 13889 ft | 329 kts | 233° |
| 2026-02-17 13:49 | 35.31765 | 139.64433 | 14517 ft | 331 kts | 233° |
| 2026-02-17 13:49 | 35.30277 | 139.62332 | 15162 ft | 332 kts | 233° |
| 2026-02-17 13:49 | 35.28760 | 139.60196 | 15794 ft | 333 kts | 233° |
| 2026-02-17 13:49 | 35.27249 | 139.58070 | 16393 ft | 334 kts | 233° |
| 2026-02-17 13:50 | 35.25728 | 139.55936 | 16990 ft | 335 kts | 234° |
| 2026-02-17 13:50 | 35.24186 | 139.53767 | 17550 ft | 336 kts | 234° |
| 2026-02-17 13:50 | 35.22659 | 139.51622 | 18098 ft | 337 kts | 234° |
| 2026-02-17 13:51 | 35.19568 | 139.47282 | 19080 ft | 341 kts | 234° |
| 2026-02-17 13:51 | 35.18019 | 139.45111 | 19578 ft | 342 kts | 234° |
| 2026-02-17 13:51 | 35.16456 | 139.42920 | 20073 ft | 343 kts | 235° |
| 2026-02-17 13:51 | 35.14875 | 139.40704 | 20539 ft | 345 kts | 235° |
| 2026-02-17 13:52 | 35.13296 | 139.38500 | 20991 ft | 346 kts | 235° |
| 2026-02-17 13:52 | 35.11710 | 139.36282 | 21452 ft | 347 kts | 235° |
| 2026-02-17 13:52 | 35.10135 | 139.34087 | 21914 ft | 348 kts | 235° |
| 2026-02-17 13:52 | 35.08534 | 139.31853 | 22348 ft | 350 kts | 234° |
| 2026-02-17 13:53 | 35.06919 | 139.29599 | 22650 ft | 355 kts | 234° |
| 2026-02-17 13:53 | 35.05303 | 139.27287 | 22954 ft | 356 kts | 238° |
| 2026-02-17 13:53 | 35.03973 | 139.24745 | 23306 ft | 353 kts | 246° |
| 2026-02-17 13:53 | 35.02985 | 139.22021 | 23669 ft | 351 kts | 253° |
| 2026-02-17 13:54 | 35.02337 | 139.19191 | 24035 ft | 351 kts | 259° |
| 2026-02-17 13:54 | 35.01821 | 139.16281 | 24393 ft | 352 kts | 260° |
| 2026-02-17 13:54 | 35.01311 | 139.13361 | 24724 ft | 353 kts | 260° |
| 2026-02-17 13:55 | 35.00310 | 139.07489 | 25289 ft | 357 kts | 259° |
| 2026-02-17 13:55 | 34.99804 | 139.04517 | 25693 ft | 357 kts | 260° |
| 2026-02-17 13:55 | 34.99323 | 139.01552 | 26030 ft | 358 kts | 261° |
| 2026-02-17 13:55 | 34.98941 | 138.98558 | 26315 ft | 359 kts | 263° |
| 2026-02-17 13:56 | 34.98669 | 138.95531 | 26581 ft | 361 kts | 265° |
| 2026-02-17 13:56 | 34.98490 | 138.92468 | 26842 ft | 362 kts | 266° |
| 2026-02-17 13:56 | 34.98323 | 138.89401 | 27064 ft | 363 kts | 266° |
| 2026-02-17 13:56 | 34.98158 | 138.86342 | 27388 ft | 363 kts | 266° |
| 2026-02-17 13:57 | 34.97988 | 138.83264 | 27667 ft | 363 kts | 266° |
| 2026-02-17 13:57 | 34.97826 | 138.80208 | 27947 ft | 363 kts | 266° |
| 2026-02-17 13:57 | 34.97664 | 138.77162 | 28272 ft | 362 kts | 266° |
| 2026-02-17 13:57 | 34.97498 | 138.74095 | 28575 ft | 361 kts | 267° |
| 2026-02-17 13:58 | 34.97337 | 138.71081 | 28735 ft | 361 kts | 267° |
| 2026-02-17 13:58 | 34.97171 | 138.68018 | 28961 ft | 362 kts | 266° |
| 2026-02-17 13:58 | 34.97009 | 138.64958 | 29215 ft | 361 kts | 267° |
| 2026-02-17 13:59 | 34.96681 | 138.58855 | 29651 ft | 362 kts | 266° |
| 2026-02-17 13:59 | 34.96513 | 138.55814 | 29876 ft | 362 kts | 266° |
| 2026-02-17 13:59 | 34.96343 | 138.52737 | 30000 ft | 362 kts | 266° |
| 2026-02-17 13:59 | 34.96175 | 138.49672 | 30102 ft | 363 kts | 266° |
| 2026-02-17 14:00 | 34.96003 | 138.46603 | 30055 ft | 363 kts | 267° |
| 2026-02-17 14:00 | 34.95664 | 138.40471 | 30064 ft | 363 kts | 266° |
| 2026-02-17 14:01 | 34.95318 | 138.34361 | 30114 ft | 362 kts | 266° |
| 2026-02-17 14:01 | 34.94972 | 138.28241 | 30095 ft | 362 kts | 266° |
| 2026-02-17 14:02 | 34.94625 | 138.22151 | 30114 ft | 361 kts | 266° |
| 2026-02-17 14:02 | 34.94274 | 138.16045 | 30111 ft | 362 kts | 266° |
| 2026-02-17 14:03 | 34.93740 | 138.06918 | 30073 ft | 362 kts | 266° |
| 2026-02-17 14:03 | 34.93380 | 138.00813 | 30105 ft | 361 kts | 266° |
| 2026-02-17 14:04 | 34.93021 | 137.94722 | 30076 ft | 361 kts | 266° |
| 2026-02-17 14:04 | 34.92650 | 137.88596 | 30080 ft | 362 kts | 266° |
| 2026-02-17 14:05 | 34.92278 | 137.82516 | 30068 ft | 361 kts | 267° |
| 2026-02-17 14:05 | 34.91908 | 137.76393 | 30016 ft | 361 kts | 266° |
| 2026-02-17 14:06 | 34.91280 | 137.70312 | 30067 ft | 363 kts | 262° |
| 2026-02-17 14:07 | 34.89396 | 137.61351 | 30050 ft | 366 kts | 255° |
| 2026-02-17 14:07 | 34.87697 | 137.55515 | 30054 ft | 367 kts | 255° |
| 2026-02-17 14:08 | 34.85989 | 137.49712 | 30049 ft | 366 kts | 254° |
| 2026-02-17 14:08 | 34.84287 | 137.43884 | 30041 ft | 367 kts | 255° |
| 2026-02-17 14:09 | 34.82618 | 137.38037 | 30068 ft | 366 kts | 255° |
| 2026-02-17 14:09 | 34.80942 | 137.32184 | 30012 ft | 367 kts | 255° |
| 2026-02-17 14:10 | 34.79272 | 137.26353 | 30110 ft | 365 kts | 255° |
| 2026-02-17 14:10 | 34.77592 | 137.20508 | 30030 ft | 366 kts | 254° |
| 2026-02-17 14:11 | 34.75077 | 137.11786 | 30094 ft | 366 kts | 255° |
| 2026-02-17 14:11 | 34.73396 | 137.05968 | 30110 ft | 366 kts | 254° |
| 2026-02-17 14:12 | 34.71717 | 137.00176 | 30082 ft | 364 kts | 254° |
| 2026-02-17 14:12 | 34.69776 | 136.94464 | 30067 ft | 365 kts | 250° |
| 2026-02-17 14:13 | 34.67482 | 136.88919 | 30120 ft | 367 kts | 248° |
| 2026-02-17 14:13 | 34.65160 | 136.83395 | 30050 ft | 367 kts | 248° |
| 2026-02-17 14:14 | 34.62841 | 136.77910 | 30139 ft | 367 kts | 249° |
| 2026-02-17 14:15 | 34.59343 | 136.69679 | 30071 ft | 365 kts | 248° |
| 2026-02-17 14:15 | 34.57015 | 136.64220 | 30099 ft | 365 kts | 248° |
| 2026-02-17 14:16 | 34.54684 | 136.58758 | 30074 ft | 364 kts | 249° |
| 2026-02-17 14:16 | 34.52353 | 136.53307 | 30084 ft | 365 kts | 249° |
| 2026-02-17 14:17 | 34.50021 | 136.47850 | 30093 ft | 366 kts | 249° |
| 2026-02-17 14:17 | 34.47686 | 136.42416 | 30123 ft | 365 kts | 249° |
| 2026-02-17 14:18 | 34.45342 | 136.36964 | 30052 ft | 363 kts | 249° |
| 2026-02-17 14:18 | 34.43010 | 136.31538 | 30058 ft | 365 kts | 248° |
| 2026-02-17 14:19 | 34.39485 | 136.23361 | 30032 ft | 365 kts | 248° |
| 2026-02-17 14:19 | 34.37211 | 136.17908 | 30049 ft | 363 kts | 251° |
| 2026-02-17 14:20 | 34.35352 | 136.12295 | 30049 ft | 358 kts | 254° |
| 2026-02-17 14:20 | 34.33962 | 136.06558 | 30066 ft | 357 kts | 259° |
| 2026-02-17 14:21 | 34.32867 | 136.00678 | 30039 ft | 356 kts | 260° |
| 2026-02-17 14:21 | 34.31802 | 135.94856 | 30039 ft | 355 kts | 259° |
| 2026-02-17 14:22 | 34.30231 | 135.86223 | 28343 ft | 358 kts | 260° |
| 2026-02-17 14:23 | 34.29154 | 135.80261 | 25848 ft | 372 kts | 259° |
| 2026-02-17 14:23 | 34.28602 | 135.77229 | 24992 ft | 369 kts | 259° |
| 2026-02-17 14:23 | 34.28059 | 135.74263 | 24203 ft | 365 kts | 259° |
| 2026-02-17 14:23 | 34.27508 | 135.71271 | 23372 ft | 363 kts | 259° |
| 2026-02-17 14:24 | 34.26971 | 135.68341 | 22558 ft | 361 kts | 259° |
| 2026-02-17 14:24 | 34.26427 | 135.65382 | 21818 ft | 357 kts | 259° |
| 2026-02-17 14:24 | 34.25894 | 135.62486 | 21195 ft | 352 kts | 259° |
| 2026-02-17 14:24 | 34.25367 | 135.59627 | 20610 ft | 347 kts | 259° |
| 2026-02-17 14:25 | 34.24852 | 135.56819 | 20064 ft | 342 kts | 259° |
| 2026-02-17 14:25 | 34.24338 | 135.54039 | 19504 ft | 338 kts | 259° |
| 2026-02-17 14:25 | 34.23832 | 135.51296 | 18970 ft | 334 kts | 259° |
| 2026-02-17 14:25 | 34.23329 | 135.48576 | 18448 ft | 330 kts | 259° |
| 2026-02-17 14:26 | 34.23164 | 135.47685 | 18272 ft | 329 kts | 259° |